Kaharoa — ZM7552 — position and weather

sailwx.info

Track history (hours):
 
Tides and Currents Weather Stations Pressure Air Temp Water Temp Dewpoint Dewpoint Depression Visibility Wind Speed Wind Dir Waves Ship Positions

Oceanographic research ship Kaharoa (New Zealand)

Detailed information on ship capabilities available from University of Delaware's Ocean Information Center.

Last reported at 2019-Oct-09 03:15 UTC. Time now 2019-Oct-14 11:05 UTC.
Position S 39°07' E 173°49'.

Length 28 m; draft 3.5 m.

Type: Fishing. MMSI: 512063000.

Date/timePositionNaut miles runAvg speedWind from/ knotsBaromVisibWave heightAir tempDewpointWater temp
2019-Oct-09 03:15S 39°07' E 173°49'17 2.9
2019-Oct-08 21:20S 39°22' E 173°39'3 8.8
2019-Oct-08 20:57S 39°25' E 173°41'21 4.2
2019-Oct-08 16:03S 39°45' E 173°47'1 3.9
2019-Oct-08 15:43S 39°47' E 173°47'1 3.6
2019-Oct-08 15:27S 39°48' E 173°47'25 2.9
2019-Oct-08 06:47S 39°23' E 173°39'4 9.3
2019-Oct-08 06:19S 39°27' E 173°41'10 9.5
2019-Oct-08 05:17S 39°36' E 173°45'9 9.7
2019-Oct-08 04:19S 39°45' E 173°49'5 9.7
2019-Oct-08 03:47S 39°50' E 173°51'19 0.9
2019-Oct-07 07:32S 39°54' E 174°15'15 3.7
2019-Oct-07 03:19S 39°52' E 173°55'12 5.7
2019-Oct-07 01:12S 39°56' E 174°10'3 3.7
2019-Oct-07 00:24S 39°58' E 174°12'4 9.7
2019-Oct-07 00:00S 40°01' E 174°15'5 9.5
2019-Oct-06 23:31S 40°05' E 174°19'5 9.5
2019-Oct-06 23:01S 40°09' E 174°22'3 5.6
2019-Oct-06 22:25S 40°11' E 174°25'1 3.1
2019-Oct-06 22:00S 40°12' E 174°26'20 6.1
2019-Oct-06 18:42S 40°22' E 174°50'2 7.2
2019-Oct-06 18:24S 40°23' E 174°52'1 2.2
2019-Oct-06 18:00S 40°24' E 174°52'2 3.2
2019-Oct-06 17:30S 40°26' E 174°53'1 2.0
2019-Oct-06 17:01S 40°25' E 174°53'1 2.7
2019-Oct-06 16:30S 40°23' E 174°52'4 7.8
2019-Oct-06 16:00S 40°27' E 174°54'4 6.4
2019-Oct-06 15:22S 40°31' E 174°56'3 6.3
2019-Oct-06 14:58S 40°29' E 174°58'2 5.2
2019-Oct-06 14:31S 40°27' E 174°59'4 7.3
2019-Oct-06 13:57S 40°25' E 174°54'3 5.8
2019-Oct-06 13:30S 40°24' E 174°52'15 6.2
2019-Oct-06 11:04S 40°12' E 174°39'2 8.1
2019-Oct-06 10:49S 40°12' E 174°36'2 8.0
2019-Oct-06 10:30S 40°13' E 174°33'4 7.9
2019-Oct-06 09:58S 40°13' E 174°27'37 3.0
2019-Oct-05 21:25S 40°30' E 175°11'1 3.4
2019-Oct-05 20:59S 40°31' E 175°11'1 0.9
2019-Oct-05 20:07S 40°30' E 175°11'1 5.5
2019-Oct-05 19:56S 40°31' E 175°11'2 5.6
2019-Oct-05 19:30S 40°33' E 175°09'1 2.4
2019-Oct-05 19:00S 40°35' E 175°09'2 3.6
2019-Oct-05 18:29S 40°36' E 175°07'1 2.6
2019-Oct-05 18:00S 40°37' E 175°06'1 3.0
2019-Oct-05 17:31S 40°38' E 175°06'0 0.9
2019-Oct-05 17:01S 40°38' E 175°06'1 2.6
2019-Oct-05 16:30S 40°39' E 175°06'1 2.8
2019-Oct-05 16:01S 40°41' E 175°06'1 2.3
2019-Oct-05 15:31S 40°40' E 175°07'2 4.6
2019-Oct-05 15:00S 40°38' E 175°08'3 4.3
2019-Oct-05 14:24S 40°35' E 175°08'1 3.4
2019-Oct-05 14:01S 40°36' E 175°06'2 3.9
2019-Oct-05 13:31S 40°38' E 175°05'1 2.5
2019-Oct-05 12:59S 40°39' E 175°05'2 3.8
2019-Oct-05 12:31S 40°38' E 175°07'2 3.9
2019-Oct-05 12:01S 40°36' E 175°08'2 4.3
2019-Oct-05 11:27S 40°34' E 175°10'4 5.9
2019-Oct-05 10:50S 40°30' E 175°11'2 4.6
2019-Oct-05 10:26S 40°29' E 175°11'3 6.1
2019-Oct-05 09:59S 40°31' E 175°11'3 6.1
2019-Oct-05 09:30S 40°34' E 175°10'2 2.8
2019-Oct-05 08:55S 40°33' E 175°10'2 4.2
2019-Oct-05 08:30S 40°34' E 175°09'3 6.7
2019-Oct-05 08:00S 40°37' E 175°08'4 7.3
2019-Oct-05 07:30S 40°41' E 175°05'4 8.8
2019-Oct-05 07:00S 40°45' E 175°03'5 9.0
2019-Oct-05 06:30S 40°49' E 175°00'4 8.7
2019-Oct-05 06:00S 40°52' E 174°58'2 4.7
2019-Oct-05 05:31S 40°53' E 174°55'0 0.9
2019-Oct-05 04:59S 40°53' E 174°55'0 0.0
2019-Oct-05 04:29S 40°53' E 174°55'0 0.1
2019-Oct-05 03:59S 40°53' E 174°55'0 0.0
2019-Oct-05 03:29S 40°53' E 174°55'0 0.0
2019-Oct-05 02:59S 40°53' E 174°55'0 0.0
2019-Oct-05 02:29S 40°53' E 174°55'0 0.0
2019-Oct-05 01:59S 40°53' E 174°55'0 0.1
2019-Oct-05 01:29S 40°53' E 174°55'0 0.1
2019-Oct-05 00:56S 40°53' E 174°55'0 0.0
2019-Oct-05 00:26S 40°53' E 174°55'0 0.0
2019-Oct-04 23:59S 40°53' E 174°55'0 0.1
2019-Oct-04 23:29S 40°53' E 174°55'0 0.1
2019-Oct-04 22:55S 40°53' E 174°55'0 0.1
2019-Oct-04 22:28S 40°53' E 174°55'0 0.0
2019-Oct-04 21:58S 40°53' E 174°55'0 0.0
2019-Oct-04 21:28S 40°53' E 174°55'0 0.0
2019-Oct-04 20:58S 40°53' E 174°55'0 0.0
2019-Oct-04 20:25S 40°53' E 174°55'0 0.0
2019-Oct-04 19:55S 40°53' E 174°55'0 0.0
2019-Oct-04 19:28S 40°53' E 174°55'0 0.0
2019-Oct-04 18:58S 40°53' E 174°55'0 0.0
2019-Oct-04 18:28S 40°53' E 174°55'0 0.0
2019-Oct-04 17:55S 40°53' E 174°55'0 0.0
2019-Oct-04 17:28S 40°53' E 174°55'0 0.1
2019-Oct-04 16:58S 40°53' E 174°55'0 0.0
2019-Oct-04 16:28S 40°53' E 174°55'0 0.1
2019-Oct-04 15:58S 40°53' E 174°55'0 0.0
2019-Oct-04 15:28S 40°53' E 174°55'0 0.0
2019-Oct-04 14:58S 40°53' E 174°55'0 0.0
2019-Oct-04 14:28S 40°53' E 174°55'0 0.0
2019-Oct-04 13:58S 40°53' E 174°55'0 0.0
2019-Oct-04 13:28S 40°53' E 174°55'0 0.0
2019-Oct-04 12:58S 40°53' E 174°55'0 0.0
2019-Oct-04 12:28S 40°53' E 174°55'0 0.0
2019-Oct-04 11:58S 40°53' E 174°55'0 0.0
2019-Oct-04 11:28S 40°53' E 174°55'0 0.0
2019-Oct-04 10:58S 40°53' E 174°55'0 0.0
2019-Oct-04 10:28S 40°53' E 174°55'0 0.0
2019-Oct-04 09:58S 40°53' E 174°55'0 0.0
2019-Oct-04 09:28S 40°53' E 174°55'0 0.0
2019-Oct-04 08:58S 40°53' E 174°55'0 0.0
2019-Oct-04 08:28S 40°53' E 174°55'0 0.0
2019-Oct-04 07:58S 40°53' E 174°55'0 0.1
2019-Oct-04 07:28S 40°53' E 174°55'0 0.0
2019-Oct-04 06:58S 40°53' E 174°55'0 0.0
2019-Oct-04 06:28S 40°53' E 174°55'1 1.4
2019-Oct-04 06:00S 40°54' E 174°55'4 8.2
2019-Oct-04 05:30S 40°50' E 174°58'5 9.8
2019-Oct-04 05:00S 40°46' E 175°01'4269.2
2019-Oct-04 05:00S 40°42' E 175°00'3 6.4 310 / 221015.1 5.4 13.1 8.713.4
2019-Oct-04 04:31S 40°42' E 175°04'4 8.9
2019-Oct-04 04:00S 40°38' E 175°06'1 1.8
2019-Oct-04 03:30S 40°38' E 175°06'2 4.4
2019-Oct-04 03:00S 40°40' E 175°04'2 3.1
2019-Oct-04 02:30S 40°41' E 175°03'1 1.8
2019-Oct-04 02:00S 40°41' E 175°04'2 5.0
2019-Oct-04 01:30S 40°41' E 175°07'1 2.5
2019-Oct-04 01:00S 40°42' E 175°06'2 4.3
2019-Oct-04 00:30S 40°44' E 175°05'5 9.1
2019-Oct-04 00:00S 40°47' E 175°00'1 2.7
2019-Oct-03 23:30S 40°48' E 175°00'1 2.6
2019-Oct-03 23:00S 40°49' E 175°00'0 0.7
2019-Oct-03 22:30S 40°49' E 174°60'4 8.4
2019-Oct-03 22:00S 40°53' E 174°58'1 3.0
2019-Oct-03 21:30S 40°54' E 174°57'1 2.7
2019-Oct-03 21:00S 40°56' E 174°56'2 3.6
2019-Oct-03 20:30S 40°57' E 174°56'2 4.2
2019-Oct-03 20:00S 40°59' E 174°55'2 3.5
2019-Oct-03 19:30S 41°01' E 174°54'1 2.0
2019-Oct-03 19:00S 40°60' E 174°54'1 1.9
2019-Oct-03 18:30S 40°59' E 174°53'1 2.8
2019-Oct-03 18:00S 41°00' E 174°52'1 2.2
2019-Oct-03 17:30S 41°01' E 174°52'0 0.7
2019-Oct-03 17:00S 41°01' E 174°51'2 3.4
2019-Oct-03 16:30S 40°59' E 174°53'1 2.0
2019-Oct-03 16:00S 41°00' E 174°52'2 3.6
2019-Oct-03 15:30S 40°60' E 174°54'1 2.2
2019-Oct-03 15:00S 40°59' E 174°54'2 4.4
2019-Oct-03 14:30S 41°00' E 174°52'0 0.6
2019-Oct-03 14:00S 41°01' E 174°52'2 3.5
2019-Oct-03 13:30S 40°59' E 174°53'1 1.5
2019-Oct-03 13:00S 40°59' E 174°52'2 4.9
2019-Oct-03 12:30S 41°01' E 174°50'0 0.7
2019-Oct-03 12:00S 41°01' E 174°50'1 1.9
2019-Oct-03 11:30S 41°00' E 174°51'2 3.7
2019-Oct-03 11:00S 41°01' E 174°53'3 5.5
2019-Oct-03 10:31S 40°59' E 174°55'2 4.0
2019-Oct-03 10:00S 40°60' E 174°53'3 6.5
2019-Oct-03 09:31S 41°02' E 174°51'1 2.0
2019-Oct-03 09:01S 41°01' E 174°51'3 5.3
2019-Oct-03 08:30S 41°03' E 174°49'510.2
2019-Oct-03 08:00S 41°07' E 174°44'510.3
2019-Oct-03 07:30S 41°11' E 174°40'5 9.7
2019-Oct-03 07:00S 41°15' E 174°36'4 7.7
2019-Oct-03 06:31S 41°18' E 174°34'4 8.0
2019-Oct-03 06:00S 41°22' E 174°37'3 6.6
2019-Oct-03 05:30S 41°23' E 174°41'5 9.8
2019-Oct-03 05:01S 41°23' E 174°47'4 8.5
2019-Oct-03 04:30S 41°20' E 174°51'4 7.7
2019-Oct-03 04:00S 41°16' E 174°48'1 1.4
2019-Oct-03 03:28S 41°16' E 174°47'0 0.0
2019-Oct-03 02:58S 41°16' E 174°47'0 0.0
2019-Oct-03 02:28S 41°16' E 174°47'0 0.0
2019-Oct-03 01:58S 41°16' E 174°47'0 0.0
2019-Oct-03 01:28S 41°16' E 174°47'0 0.0
2019-Oct-03 00:58S 41°16' E 174°47'0 0.0
2019-Oct-03 00:28S 41°16' E 174°47'0 0.0
2019-Oct-02 23:58S 41°16' E 174°47'0 0.0
2019-Oct-02 23:28S 41°16' E 174°47'0 0.0
2019-Oct-02 22:55S 41°16' E 174°47'0 0.0
2019-Oct-02 22:28S 41°16' E 174°47'0 0.0
2019-Oct-02 21:58S 41°16' E 174°47'0 0.0
2019-Oct-02 21:28S 41°16' E 174°47'0 0.0
2019-Oct-02 20:58S 41°16' E 174°47'0 0.0
2019-Oct-02 20:28S 41°16' E 174°47'0 0.0
2019-Oct-02 19:58S 41°16' E 174°47'0 0.0
2019-Oct-02 19:25S 41°16' E 174°47'0 0.0
2019-Oct-02 18:58S 41°16' E 174°47'0 0.0
2019-Oct-02 18:28S 41°16' E 174°47'0 0.0
2019-Oct-02 17:58S 41°16' E 174°47'0 0.0
2019-Oct-02 17:28S 41°16' E 174°47'0 0.0
2019-Oct-02 16:58S 41°16' E 174°47'0 0.0
2019-Oct-02 16:28S 41°16' E 174°47'0 0.0
2019-Oct-02 15:58S 41°16' E 174°47'0 0.0
2019-Oct-02 15:28S 41°16' E 174°47'0 0.0
2019-Oct-02 14:58S 41°16' E 174°47'0 0.0
2019-Oct-02 14:28S 41°16' E 174°47'0 0.0
2019-Oct-02 13:58S 41°16' E 174°47'0 0.0
2019-Oct-02 13:28S 41°16' E 174°47'0 0.0
2019-Oct-02 12:58S 41°16' E 174°47'0 0.0
2019-Oct-02 12:28S 41°16' E 174°47'0 0.0
2019-Oct-02 11:58S 41°16' E 174°47'0 0.0
2019-Oct-02 11:25S 41°16' E 174°47'0 0.0
2019-Oct-02 10:58S 41°16' E 174°47'0 0.0
2019-Oct-02 10:28S 41°16' E 174°47'0 0.0
2019-Oct-02 09:58S 41°16' E 174°47'0 0.0
2019-Oct-02 09:28S 41°16' E 174°47'0 0.0
2019-Oct-02 08:58S 41°16' E 174°47'0 0.0
2019-Oct-02 08:13S 41°16' E 174°47'0 0.0
2019-Oct-02 07:58S 41°16' E 174°47'0 0.0
2019-Oct-02 07:28S 41°16' E 174°47'0 0.0
2019-Oct-02 06:28S 41°16' E 174°47'0 0.0
2019-Oct-02 05:55S 41°16' E 174°47'0 0.0
2019-Oct-02 05:28S 41°16' E 174°47'0 0.0
2019-Oct-02 04:58S 41°16' E 174°47'0 0.0
2019-Oct-02 04:28S 41°16' E 174°47'0 0.0
2019-Oct-02 03:37S 41°16' E 174°47'0 0.0
2019-Oct-02 03:07S 41°16' E 174°47'0 0.0
2019-Oct-02 02:52S 41°16' E 174°47'0 0.0
2019-Oct-02 02:16S 41°16' E 174°47'0 0.0
2019-Oct-02 01:46S 41°16' E 174°47'0 0.0
2019-Oct-02 01:30S 41°16' E 174°47'0 0.0
2019-Oct-02 01:00S 41°16' E 174°47'0 0.0
2019-Oct-02 00:30S 41°16' E 174°47'0 0.0
2019-Oct-02 00:00S 41°16' E 174°47'0 0.0
2019-Oct-01 23:30S 41°16' E 174°47'0 0.0
2019-Oct-01 23:00S 41°16' E 174°47'0 0.0
2019-Oct-01 22:30S 41°16' E 174°47'0 0.0
2019-Oct-01 22:00S 41°16' E 174°47'0 0.0
2019-Oct-01 21:30S 41°16' E 174°47'1 2.0
2019-Oct-01 21:00S 41°17' E 174°47'0 0.4
2019-Oct-01 20:30S 41°17' E 174°47'0 0.0
2019-Oct-01 20:00S 41°17' E 174°47'0 0.0
2019-Oct-01 19:27S 41°17' E 174°47'0 0.0
2019-Oct-01 19:00S 41°17' E 174°47'0 0.1
2019-Oct-01 18:30S 41°17' E 174°47'0 0.0
2019-Oct-01 18:00S 41°17' E 174°47'0 0.1
2019-Oct-01 17:30S 41°17' E 174°47'0 0.1
2019-Oct-01 17:00S 41°17' E 174°47'0 0.1
2019-Oct-01 16:30S 41°17' E 174°47'0 0.1
2019-Oct-01 16:00S 41°17' E 174°47'0 0.1
2019-Oct-01 15:30S 41°17' E 174°47'0 0.0
2019-Oct-01 14:57S 41°17' E 174°47'0 0.0
2019-Oct-01 14:30S 41°17' E 174°47'0 0.0
2019-Oct-01 14:00S 41°17' E 174°47'0 0.1
2019-Oct-01 13:30S 41°17' E 174°47'0 0.0
2019-Oct-01 13:00S 41°17' E 174°47'0 0.1
2019-Oct-01 12:30S 41°17' E 174°47'0 0.0
2019-Oct-01 12:00S 41°17' E 174°47'0 0.0
2019-Oct-01 11:29S 41°17' E 174°47'0 0.0
2019-Oct-01 10:56S 41°17' E 174°47'0 0.0
2019-Oct-01 10:29S 41°17' E 174°47'0 0.0
2019-Oct-01 09:59S 41°17' E 174°47'0 0.0
2019-Oct-01 09:29S 41°17' E 174°47'0 0.1
2019-Oct-01 08:59S 41°17' E 174°47'0 0.1
2019-Oct-01 08:29S 41°17' E 174°47'0 0.1
2019-Oct-01 07:59S 41°17' E 174°47'0 0.1
2019-Oct-01 07:29S 41°17' E 174°47'0 0.0
2019-Oct-01 06:59S 41°17' E 174°47'0 0.0
2019-Oct-01 06:29S 41°17' E 174°47'0 0.0
2019-Oct-01 05:59S 41°17' E 174°47'0 0.0
2019-Oct-01 05:29S 41°17' E 174°47'0 0.1
2019-Oct-01 04:59S 41°17' E 174°47'0 0.0
2019-Oct-01 03:44S 41°17' E 174°47'0 0.1
2019-Oct-01 03:11S 41°17' E 174°47'0 0.0
2019-Oct-01 02:56S 41°17' E 174°47'0 0.0
2019-Oct-01 02:14S 41°17' E 174°47'0 0.1
2019-Oct-01 01:38S 41°17' E 174°47'0 0.1
2019-Oct-01 00:50S 41°17' E 174°47'0 0.1
2019-Oct-01 00:29S 41°17' E 174°47'0 0.1
2019-Sep-30 23:59S 41°17' E 174°47'0 0.1
2019-Sep-30 23:26S 41°17' E 174°47'0 0.1
2019-Sep-30 22:59S 41°17' E 174°47'0 0.0
2019-Sep-30 22:29S 41°17' E 174°47'0 0.0
2019-Sep-30 21:59S 41°17' E 174°47'0 0.0
2019-Sep-30 21:29S 41°17' E 174°47'0 0.0
2019-Sep-30 20:59S 41°17' E 174°47'0 0.0
2019-Sep-30 20:29S 41°17' E 174°47'0 0.1
2019-Sep-30 19:59S 41°17' E 174°47'0 0.1
2019-Sep-30 19:29S 41°17' E 174°47'0 0.0
2019-Sep-30 18:59S 41°17' E 174°47'0 0.1
2019-Sep-30 18:29S 41°17' E 174°47'0 0.1
2019-Sep-30 17:59S 41°17' E 174°47'0 0.0
2019-Sep-30 17:29S 41°17' E 174°47'0 0.1
2019-Sep-30 16:59S 41°17' E 174°47'0 0.1
2019-Sep-30 16:29S 41°17' E 174°47'0 0.0
2019-Sep-30 15:59S 41°17' E 174°47'0 0.1
2019-Sep-30 15:29S 41°17' E 174°47'0 0.1
2019-Sep-30 14:56S 41°17' E 174°47'0 0.1
2019-Sep-30 14:29S 41°17' E 174°47'0 0.1
2019-Sep-30 13:59S 41°17' E 174°47'0 0.0
2019-Sep-30 13:11S 41°17' E 174°47'0 0.0
2019-Sep-30 12:59S 41°17' E 174°47'0 0.0
2019-Sep-30 12:29S 41°17' E 174°47'0 0.0
2019-Sep-30 11:59S 41°17' E 174°47'0 0.0
2019-Sep-30 11:29S 41°17' E 174°47'0 0.0
2019-Sep-30 10:56S 41°17' E 174°47'0 0.1
2019-Sep-30 10:29S 41°17' E 174°47'0 0.1
2019-Sep-30 09:59S 41°17' E 174°47'0 0.1
2019-Sep-30 09:29S 41°17' E 174°47'0 0.1
2019-Sep-30 08:59S 41°17' E 174°47'0 0.1
2019-Sep-30 08:29S 41°17' E 174°47'0 0.0
2019-Sep-30 07:56S 41°17' E 174°47'0 0.1
2019-Sep-30 07:26S 41°17' E 174°47'0 0.0
2019-Sep-30 06:53S 41°17' E 174°47'0 0.0
2019-Sep-30 06:29S 41°17' E 174°47'0 0.0
2019-Sep-30 05:59S 41°17' E 174°47'0 0.0
2019-Sep-30 05:29S 41°17' E 174°47'0 0.1
2019-Sep-30 04:59S 41°17' E 174°47'0 0.1
2019-Sep-30 04:26S 41°17' E 174°47'0 0.1
2019-Sep-30 03:59S 41°17' E 174°47'0 0.1
2019-Sep-30 03:29S 41°17' E 174°47'0 0.0
2019-Sep-30 02:59S 41°17' E 174°47'0 0.0
2019-Sep-30 02:26S 41°17' E 174°47'0 0.0
2019-Sep-30 01:56S 41°17' E 174°47'0 0.0
2019-Sep-30 01:23S 41°17' E 174°47'0 0.0
2019-Sep-30 00:59S 41°17' E 174°47'0 0.1
2019-Sep-30 00:29S 41°17' E 174°47'0 0.1
2019-Sep-29 23:59S 41°17' E 174°47'0 0.0
2019-Sep-29 23:29S 41°17' E 174°47'0 0.0
2019-Sep-29 22:59S 41°17' E 174°47'0 0.0
2019-Sep-29 22:29S 41°17' E 174°47'0 0.1
2019-Sep-29 21:59S 41°17' E 174°47'0 0.1
2019-Sep-29 21:29S 41°17' E 174°47'0 0.0
2019-Sep-29 20:59S 41°17' E 174°47'0 0.1
2019-Sep-29 20:29S 41°17' E 174°47'0 0.1
2019-Sep-29 19:59S 41°17' E 174°47'0 0.0
2019-Sep-29 19:29S 41°17' E 174°47'0 0.1
2019-Sep-29 18:59S 41°17' E 174°47'0 0.1
2019-Sep-29 18:29S 41°17' E 174°47'0 0.0
2019-Sep-29 17:59S 41°17' E 174°47'0 0.0
2019-Sep-29 17:29S 41°17' E 174°47'0 0.0
2019-Sep-29 16:59S 41°17' E 174°47'0 0.0
2019-Sep-29 16:29S 41°17' E 174°47'0 0.0
2019-Sep-29 15:59S 41°17' E 174°47'0 0.0
2019-Sep-29 15:26S 41°17' E 174°47'0 0.0
2019-Sep-29 14:59S 41°17' E 174°47'0 0.0
2019-Sep-29 14:29S 41°17' E 174°47'0 0.0
2019-Sep-29 13:59S 41°17' E 174°47'0 0.1
2019-Sep-29 13:29S 41°17' E 174°47'0 0.1
2019-Sep-29 12:59S 41°17' E 174°47'0 0.0
2019-Sep-29 12:29S 41°17' E 174°47'0 0.0
2019-Sep-29 11:59S 41°17' E 174°47'0 0.0
2019-Sep-29 11:29S 41°17' E 174°47'0 0.0
2019-Sep-29 10:59S 41°17' E 174°47'0 0.0
2019-Sep-29 10:26S 41°17' E 174°47'0 0.1
2019-Sep-29 09:59S 41°17' E 174°47'0 0.0
2019-Sep-29 09:23S 41°17' E 174°47'0 0.0
2019-Sep-29 08:56S 41°17' E 174°47'0 0.1
2019-Sep-29 08:26S 41°17' E 174°47'0 0.0
2019-Sep-29 07:53S 41°17' E 174°47'0 0.0
2019-Sep-29 07:17S 41°17' E 174°47'0 0.0
2019-Sep-29 06:59S 41°17' E 174°47'0 0.0
2019-Sep-29 06:29S 41°17' E 174°47'0 0.0
2019-Sep-29 05:59S 41°17' E 174°47'0 0.0
2019-Sep-29 05:26S 41°17' E 174°47'0 0.1
2019-Sep-29 04:59S 41°17' E 174°47'0 0.0
2019-Sep-29 04:29S 41°17' E 174°47'0 0.0
2019-Sep-29 03:59S 41°17' E 174°47'0 0.1
2019-Sep-29 03:29S 41°17' E 174°47'  
Track history (hours):
 
Tides and Currents Weather Stations Pressure Air Temp Water Temp Dewpoint Dewpoint Depression Visibility Wind Speed Wind Dir Waves Ship Positions

Oceanographic research ship Kaharoa (New Zealand)

Detailed information on ship capabilities available from University of Delaware's Ocean Information Center.

Last reported at 2019-Oct-09 03:15 UTC. Time now 2019-Oct-14 11:05 UTC.
Position S 39°07' E 173°49'.

Length 28 m; draft 3.5 m.

Type: Fishing. MMSI: 512063000.

Date/timePositionNaut miles runAvg speedWind from/ knotsBaromVisibWave heightAir tempDewpointWater temp
2019-Oct-09 03:15S 39°07' E 173°49'17 2.9
2019-Oct-08 21:20S 39°22' E 173°39'3 8.8
2019-Oct-08 20:57S 39°25' E 173°41'21 4.2
2019-Oct-08 16:03S 39°45' E 173°47'1 3.9
2019-Oct-08 15:43S 39°47' E 173°47'1 3.6
2019-Oct-08 15:27S 39°48' E 173°47'25 2.9
2019-Oct-08 06:47S 39°23' E 173°39'4 9.3
2019-Oct-08 06:19S 39°27' E 173°41'10 9.5
2019-Oct-08 05:17S 39°36' E 173°45'9 9.7
2019-Oct-08 04:19S 39°45' E 173°49'5 9.7
2019-Oct-08 03:47S 39°50' E 173°51'19 0.9
2019-Oct-07 07:32S 39°54' E 174°15'15 3.7
2019-Oct-07 03:19S 39°52' E 173°55'12 5.7
2019-Oct-07 01:12S 39°56' E 174°10'3 3.7
2019-Oct-07 00:24S 39°58' E 174°12'4 9.7
2019-Oct-07 00:00S 40°01' E 174°15'5 9.5
2019-Oct-06 23:31S 40°05' E 174°19'5 9.5
2019-Oct-06 23:01S 40°09' E 174°22'3 5.6
2019-Oct-06 22:25S 40°11' E 174°25'1 3.1
2019-Oct-06 22:00S 40°12' E 174°26'20 6.1
2019-Oct-06 18:42S 40°22' E 174°50'2 7.2
2019-Oct-06 18:24S 40°23' E 174°52'1 2.2
2019-Oct-06 18:00S 40°24' E 174°52'2 3.2
2019-Oct-06 17:30S 40°26' E 174°53'1 2.0
2019-Oct-06 17:01S 40°25' E 174°53'1 2.7
2019-Oct-06 16:30S 40°23' E 174°52'4 7.8
2019-Oct-06 16:00S 40°27' E 174°54'4 6.4
2019-Oct-06 15:22S 40°31' E 174°56'3 6.3
2019-Oct-06 14:58S 40°29' E 174°58'2 5.2
2019-Oct-06 14:31S 40°27' E 174°59'4 7.3
2019-Oct-06 13:57S 40°25' E 174°54'3 5.8
2019-Oct-06 13:30S 40°24' E 174°52'15 6.2
2019-Oct-06 11:04S 40°12' E 174°39'2 8.1
2019-Oct-06 10:49S 40°12' E 174°36'2 8.0
2019-Oct-06 10:30S 40°13' E 174°33'4 7.9
2019-Oct-06 09:58S 40°13' E 174°27'37 3.0
2019-Oct-05 21:25S 40°30' E 175°11'1 3.4
2019-Oct-05 20:59S 40°31' E 175°11'1 0.9
2019-Oct-05 20:07S 40°30' E 175°11'1 5.5
2019-Oct-05 19:56S 40°31' E 175°11'2 5.6
2019-Oct-05 19:30S 40°33' E 175°09'1 2.4
2019-Oct-05 19:00S 40°35' E 175°09'2 3.6
2019-Oct-05 18:29S 40°36' E 175°07'1 2.6
2019-Oct-05 18:00S 40°37' E 175°06'1 3.0
2019-Oct-05 17:31S 40°38' E 175°06'0 0.9
2019-Oct-05 17:01S 40°38' E 175°06'1 2.6
2019-Oct-05 16:30S 40°39' E 175°06'1 2.8
2019-Oct-05 16:01S 40°41' E 175°06'1 2.3
2019-Oct-05 15:31S 40°40' E 175°07'2 4.6
2019-Oct-05 15:00S 40°38' E 175°08'3 4.3
2019-Oct-05 14:24S 40°35' E 175°08'1 3.4
2019-Oct-05 14:01S 40°36' E 175°06'2 3.9
2019-Oct-05 13:31S 40°38' E 175°05'1 2.5
2019-Oct-05 12:59S 40°39' E 175°05'2 3.8
2019-Oct-05 12:31S 40°38' E 175°07'2 3.9
2019-Oct-05 12:01S 40°36' E 175°08'2 4.3
2019-Oct-05 11:27S 40°34' E 175°10'4 5.9
2019-Oct-05 10:50S 40°30' E 175°11'2 4.6
2019-Oct-05 10:26S 40°29' E 175°11'3 6.1
2019-Oct-05 09:59S 40°31' E 175°11'3 6.1
2019-Oct-05 09:30S 40°34' E 175°10'2 2.8
2019-Oct-05 08:55S 40°33' E 175°10'2 4.2
2019-Oct-05 08:30S 40°34' E 175°09'3 6.7
2019-Oct-05 08:00S 40°37' E 175°08'4 7.3
2019-Oct-05 07:30S 40°41' E 175°05'4 8.8
2019-Oct-05 07:00S 40°45' E 175°03'5 9.0
2019-Oct-05 06:30S 40°49' E 175°00'4 8.7
2019-Oct-05 06:00S 40°52' E 174°58'2 4.7
2019-Oct-05 05:31S 40°53' E 174°55'0 0.9
2019-Oct-05 04:59S 40°53' E 174°55'0 0.0
2019-Oct-05 04:29S 40°53' E 174°55'0 0.1
2019-Oct-05 03:59S 40°53' E 174°55'0 0.0
2019-Oct-05 03:29S 40°53' E 174°55'0 0.0
2019-Oct-05 02:59S 40°53' E 174°55'0 0.0
2019-Oct-05 02:29S 40°53' E 174°55'0 0.0
2019-Oct-05 01:59S 40°53' E 174°55'0 0.1
2019-Oct-05 01:29S 40°53' E 174°55'0 0.1
2019-Oct-05 00:56S 40°53' E 174°55'0 0.0
2019-Oct-05 00:26S 40°53' E 174°55'0 0.0
2019-Oct-04 23:59S 40°53' E 174°55'0 0.1
2019-Oct-04 23:29S 40°53' E 174°55'0 0.1
2019-Oct-04 22:55S 40°53' E 174°55'0 0.1
2019-Oct-04 22:28S 40°53' E 174°55'0 0.0
2019-Oct-04 21:58S 40°53' E 174°55'0 0.0
2019-Oct-04 21:28S 40°53' E 174°55'0 0.0
2019-Oct-04 20:58S 40°53' E 174°55'0 0.0
2019-Oct-04 20:25S 40°53' E 174°55'0 0.0
2019-Oct-04 19:55S 40°53' E 174°55'0 0.0
2019-Oct-04 19:28S 40°53' E 174°55'0 0.0
2019-Oct-04 18:58S 40°53' E 174°55'0 0.0
2019-Oct-04 18:28S 40°53' E 174°55'0 0.0
2019-Oct-04 17:55S 40°53' E 174°55'0 0.0
2019-Oct-04 17:28S 40°53' E 174°55'0 0.1
2019-Oct-04 16:58S 40°53' E 174°55'0 0.0
2019-Oct-04 16:28S 40°53' E 174°55'0 0.1
2019-Oct-04 15:58S 40°53' E 174°55'0 0.0
2019-Oct-04 15:28S 40°53' E 174°55'0 0.0
2019-Oct-04 14:58S 40°53' E 174°55'0 0.0
2019-Oct-04 14:28S 40°53' E 174°55'0 0.0
2019-Oct-04 13:58S 40°53' E 174°55'0 0.0
2019-Oct-04 13:28S 40°53' E 174°55'0 0.0
2019-Oct-04 12:58S 40°53' E 174°55'0 0.0
2019-Oct-04 12:28S 40°53' E 174°55'0 0.0
2019-Oct-04 11:58S 40°53' E 174°55'0 0.0
2019-Oct-04 11:28S 40°53' E 174°55'0 0.0
2019-Oct-04 10:58S 40°53' E 174°55'0 0.0
2019-Oct-04 10:28S 40°53' E 174°55'0 0.0
2019-Oct-04 09:58S 40°53' E 174°55'0 0.0
2019-Oct-04 09:28S 40°53' E 174°55'0 0.0
2019-Oct-04 08:58S 40°53' E 174°55'0 0.0
2019-Oct-04 08:28S 40°53' E 174°55'0 0.0
2019-Oct-04 07:58S 40°53' E 174°55'0 0.1
2019-Oct-04 07:28S 40°53' E 174°55'0 0.0
2019-Oct-04 06:58S 40°53' E 174°55'0 0.0
2019-Oct-04 06:28S 40°53' E 174°55'1 1.4
2019-Oct-04 06:00S 40°54' E 174°55'4 8.2
2019-Oct-04 05:30S 40°50' E 174°58'5 9.8
2019-Oct-04 05:00S 40°46' E 175°01'4269.2
2019-Oct-04 05:00S 40°42' E 175°00'3 6.4 310 / 221015.1 5.4 13.1 8.713.4
2019-Oct-04 04:31S 40°42' E 175°04'4 8.9
2019-Oct-04 04:00S 40°38' E 175°06'1 1.8
2019-Oct-04 03:30S 40°38' E 175°06'2 4.4
2019-Oct-04 03:00S 40°40' E 175°04'2 3.1
2019-Oct-04 02:30S 40°41' E 175°03'1 1.8
2019-Oct-04 02:00S 40°41' E 175°04'2 5.0
2019-Oct-04 01:30S 40°41' E 175°07'1 2.5
2019-Oct-04 01:00S 40°42' E 175°06'2 4.3
2019-Oct-04 00:30S 40°44' E 175°05'5 9.1
2019-Oct-04 00:00S 40°47' E 175°00'1 2.7
2019-Oct-03 23:30S 40°48' E 175°00'1 2.6
2019-Oct-03 23:00S 40°49' E 175°00'0 0.7
2019-Oct-03 22:30S 40°49' E 174°60'4 8.4
2019-Oct-03 22:00S 40°53' E 174°58'1 3.0
2019-Oct-03 21:30S 40°54' E 174°57'1 2.7
2019-Oct-03 21:00S 40°56' E 174°56'2 3.6
2019-Oct-03 20:30S 40°57' E 174°56'2 4.2
2019-Oct-03 20:00S 40°59' E 174°55'2 3.5
2019-Oct-03 19:30S 41°01' E 174°54'1 2.0
2019-Oct-03 19:00S 40°60' E 174°54'1 1.9
2019-Oct-03 18:30S 40°59' E 174°53'1 2.8
2019-Oct-03 18:00S 41°00' E 174°52'1 2.2
2019-Oct-03 17:30S 41°01' E 174°52'0 0.7
2019-Oct-03 17:00S 41°01' E 174°51'2 3.4
2019-Oct-03 16:30S 40°59' E 174°53'1 2.0
2019-Oct-03 16:00S 41°00' E 174°52'2 3.6
2019-Oct-03 15:30S 40°60' E 174°54'1 2.2
2019-Oct-03 15:00S 40°59' E 174°54'2 4.4
2019-Oct-03 14:30S 41°00' E 174°52'0 0.6
2019-Oct-03 14:00S 41°01' E 174°52'2 3.5
2019-Oct-03 13:30S 40°59' E 174°53'1 1.5
2019-Oct-03 13:00S 40°59' E 174°52'2 4.9
2019-Oct-03 12:30S 41°01' E 174°50'0 0.7
2019-Oct-03 12:00S 41°01' E 174°50'1 1.9
2019-Oct-03 11:30S 41°00' E 174°51'2 3.7
2019-Oct-03 11:00S 41°01' E 174°53'3 5.5
2019-Oct-03 10:31S 40°59' E 174°55'2 4.0
2019-Oct-03 10:00S 40°60' E 174°53'3 6.5
2019-Oct-03 09:31S 41°02' E 174°51'1 2.0
2019-Oct-03 09:01S 41°01' E 174°51'3 5.3
2019-Oct-03 08:30S 41°03' E 174°49'510.2
2019-Oct-03 08:00S 41°07' E 174°44'510.3
2019-Oct-03 07:30S 41°11' E 174°40'5 9.7
2019-Oct-03 07:00S 41°15' E 174°36'4 7.7
2019-Oct-03 06:31S 41°18' E 174°34'4 8.0
2019-Oct-03 06:00S 41°22' E 174°37'3 6.6
2019-Oct-03 05:30S 41°23' E 174°41'5 9.8
2019-Oct-03 05:01S 41°23' E 174°47'4 8.5
2019-Oct-03 04:30S 41°20' E 174°51'4 7.7
2019-Oct-03 04:00S 41°16' E 174°48'1 1.4
2019-Oct-03 03:28S 41°16' E 174°47'0 0.0
2019-Oct-03 02:58S 41°16' E 174°47'0 0.0
2019-Oct-03 02:28S 41°16' E 174°47'0 0.0
2019-Oct-03 01:58S 41°16' E 174°47'0 0.0
2019-Oct-03 01:28S 41°16' E 174°47'0 0.0
2019-Oct-03 00:58S 41°16' E 174°47'0 0.0
2019-Oct-03 00:28S 41°16' E 174°47'0 0.0
2019-Oct-02 23:58S 41°16' E 174°47'0 0.0
2019-Oct-02 23:28S 41°16' E 174°47'0 0.0
2019-Oct-02 22:55S 41°16' E 174°47'0 0.0
2019-Oct-02 22:28S 41°16' E 174°47'0 0.0
2019-Oct-02 21:58S 41°16' E 174°47'0 0.0
2019-Oct-02 21:28S 41°16' E 174°47'0 0.0
2019-Oct-02 20:58S 41°16' E 174°47'0 0.0
2019-Oct-02 20:28S 41°16' E 174°47'0 0.0
2019-Oct-02 19:58S 41°16' E 174°47'0 0.0
2019-Oct-02 19:25S 41°16' E 174°47'0 0.0
2019-Oct-02 18:58S 41°16' E 174°47'0 0.0
2019-Oct-02 18:28S 41°16' E 174°47'0 0.0
2019-Oct-02 17:58S 41°16' E 174°47'0 0.0
2019-Oct-02 17:28S 41°16' E 174°47'0 0.0
2019-Oct-02 16:58S 41°16' E 174°47'0 0.0
2019-Oct-02 16:28S 41°16' E 174°47'0 0.0
2019-Oct-02 15:58S 41°16' E 174°47'0 0.0
2019-Oct-02 15:28S 41°16' E 174°47'0 0.0
2019-Oct-02 14:58S 41°16' E 174°47'0 0.0
2019-Oct-02 14:28S 41°16' E 174°47'0 0.0
2019-Oct-02 13:58S 41°16' E 174°47'0 0.0
2019-Oct-02 13:28S 41°16' E 174°47'0 0.0
2019-Oct-02 12:58S 41°16' E 174°47'0 0.0
2019-Oct-02 12:28S 41°16' E 174°47'0 0.0
2019-Oct-02 11:58S 41°16' E 174°47'0 0.0
2019-Oct-02 11:25S 41°16' E 174°47'0 0.0
2019-Oct-02 10:58S 41°16' E 174°47'0 0.0
2019-Oct-02 10:28S 41°16' E 174°47'0 0.0
2019-Oct-02 09:58S 41°16' E 174°47'0 0.0
2019-Oct-02 09:28S 41°16' E 174°47'0 0.0
2019-Oct-02 08:58S 41°16' E 174°47'0 0.0
2019-Oct-02 08:13S 41°16' E 174°47'0 0.0
2019-Oct-02 07:58S 41°16' E 174°47'0 0.0
2019-Oct-02 07:28S 41°16' E 174°47'0 0.0
2019-Oct-02 06:28S 41°16' E 174°47'0 0.0
2019-Oct-02 05:55S 41°16' E 174°47'0 0.0
2019-Oct-02 05:28S 41°16' E 174°47'0 0.0
2019-Oct-02 04:58S 41°16' E 174°47'0 0.0
2019-Oct-02 04:28S 41°16' E 174°47'0 0.0
2019-Oct-02 03:37S 41°16' E 174°47'0 0.0
2019-Oct-02 03:07S 41°16' E 174°47'0 0.0
2019-Oct-02 02:52S 41°16' E 174°47'0 0.0
2019-Oct-02 02:16S 41°16' E 174°47'0 0.0
2019-Oct-02 01:46S 41°16' E 174°47'0 0.0
2019-Oct-02 01:30S 41°16' E 174°47'0 0.0
2019-Oct-02 01:00S 41°16' E 174°47'0 0.0
2019-Oct-02 00:30S 41°16' E 174°47'0 0.0
2019-Oct-02 00:00S 41°16' E 174°47'0 0.0
2019-Oct-01 23:30S 41°16' E 174°47'0 0.0
2019-Oct-01 23:00S 41°16' E 174°47'0 0.0
2019-Oct-01 22:30S 41°16' E 174°47'0 0.0
2019-Oct-01 22:00S 41°16' E 174°47'0 0.0
2019-Oct-01 21:30S 41°16' E 174°47'1 2.0
2019-Oct-01 21:00S 41°17' E 174°47'0 0.4
2019-Oct-01 20:30S 41°17' E 174°47'0 0.0
2019-Oct-01 20:00S 41°17' E 174°47'0 0.0
2019-Oct-01 19:27S 41°17' E 174°47'0 0.0
2019-Oct-01 19:00S 41°17' E 174°47'0 0.1
2019-Oct-01 18:30S 41°17' E 174°47'0 0.0
2019-Oct-01 18:00S 41°17' E 174°47'0 0.1
2019-Oct-01 17:30S 41°17' E 174°47'0 0.1
2019-Oct-01 17:00S 41°17' E 174°47'0 0.1
2019-Oct-01 16:30S 41°17' E 174°47'0 0.1
2019-Oct-01 16:00S 41°17' E 174°47'0 0.1
2019-Oct-01 15:30S 41°17' E 174°47'0 0.0
2019-Oct-01 14:57S 41°17' E 174°47'0 0.0
2019-Oct-01 14:30S 41°17' E 174°47'0 0.0
2019-Oct-01 14:00S 41°17' E 174°47'0 0.1
2019-Oct-01 13:30S 41°17' E 174°47'0 0.0
2019-Oct-01 13:00S 41°17' E 174°47'0 0.1
2019-Oct-01 12:30S 41°17' E 174°47'0 0.0
2019-Oct-01 12:00S 41°17' E 174°47'0 0.0
2019-Oct-01 11:29S 41°17' E 174°47'0 0.0
2019-Oct-01 10:56S 41°17' E 174°47'0 0.0
2019-Oct-01 10:29S 41°17' E 174°47'0 0.0
2019-Oct-01 09:59S 41°17' E 174°47'0 0.0
2019-Oct-01 09:29S 41°17' E 174°47'0 0.1
2019-Oct-01 08:59S 41°17' E 174°47'0 0.1
2019-Oct-01 08:29S 41°17' E 174°47'0 0.1
2019-Oct-01 07:59S 41°17' E 174°47'0 0.1
2019-Oct-01 07:29S 41°17' E 174°47'0 0.0
2019-Oct-01 06:59S 41°17' E 174°47'0 0.0
2019-Oct-01 06:29S 41°17' E 174°47'0 0.0
2019-Oct-01 05:59S 41°17' E 174°47'0 0.0
2019-Oct-01 05:29S 41°17' E 174°47'0 0.1
2019-Oct-01 04:59S 41°17' E 174°47'0 0.0
2019-Oct-01 03:44S 41°17' E 174°47'0 0.1
2019-Oct-01 03:11S 41°17' E 174°47'0 0.0
2019-Oct-01 02:56S 41°17' E 174°47'0 0.0
2019-Oct-01 02:14S 41°17' E 174°47'0 0.1
2019-Oct-01 01:38S 41°17' E 174°47'0 0.1
2019-Oct-01 00:50S 41°17' E 174°47'0 0.1
2019-Oct-01 00:29S 41°17' E 174°47'0 0.1
2019-Sep-30 23:59S 41°17' E 174°47'0 0.1
2019-Sep-30 23:26S 41°17' E 174°47'0 0.1
2019-Sep-30 22:59S 41°17' E 174°47'0 0.0
2019-Sep-30 22:29S 41°17' E 174°47'0 0.0
2019-Sep-30 21:59S 41°17' E 174°47'0 0.0
2019-Sep-30 21:29S 41°17' E 174°47'0 0.0
2019-Sep-30 20:59S 41°17' E 174°47'0 0.0
2019-Sep-30 20:29S 41°17' E 174°47'0 0.1
2019-Sep-30 19:59S 41°17' E 174°47'0 0.1
2019-Sep-30 19:29S 41°17' E 174°47'0 0.0
2019-Sep-30 18:59S 41°17' E 174°47'0 0.1
2019-Sep-30 18:29S 41°17' E 174°47'0 0.1
2019-Sep-30 17:59S 41°17' E 174°47'0 0.0
2019-Sep-30 17:29S 41°17' E 174°47'0 0.1
2019-Sep-30 16:59S 41°17' E 174°47'0 0.1
2019-Sep-30 16:29S 41°17' E 174°47'0 0.0
2019-Sep-30 15:59S 41°17' E 174°47'0 0.1
2019-Sep-30 15:29S 41°17' E 174°47'0 0.1
2019-Sep-30 14:56S 41°17' E 174°47'0 0.1
2019-Sep-30 14:29S 41°17' E 174°47'0 0.1
2019-Sep-30 13:59S 41°17' E 174°47'0 0.0
2019-Sep-30 13:11S 41°17' E 174°47'0 0.0
2019-Sep-30 12:59S 41°17' E 174°47'0 0.0
2019-Sep-30 12:29S 41°17' E 174°47'0 0.0
2019-Sep-30 11:59S 41°17' E 174°47'0 0.0
2019-Sep-30 11:29S 41°17' E 174°47'0 0.0
2019-Sep-30 10:56S 41°17' E 174°47'0 0.1
2019-Sep-30 10:29S 41°17' E 174°47'0 0.1
2019-Sep-30 09:59S 41°17' E 174°47'0 0.1
2019-Sep-30 09:29S 41°17' E 174°47'0 0.1
2019-Sep-30 08:59S 41°17' E 174°47'0 0.1
2019-Sep-30 08:29S 41°17' E 174°47'0 0.0
2019-Sep-30 07:56S 41°17' E 174°47'0 0.1
2019-Sep-30 07:26S 41°17' E 174°47'0 0.0
2019-Sep-30 06:53S 41°17' E 174°47'0 0.0
2019-Sep-30 06:29S 41°17' E 174°47'0 0.0
2019-Sep-30 05:59S 41°17' E 174°47'0 0.0
2019-Sep-30 05:29S 41°17' E 174°47'0 0.1
2019-Sep-30 04:59S 41°17' E 174°47'0 0.1
2019-Sep-30 04:26S 41°17' E 174°47'0 0.1
2019-Sep-30 03:59S 41°17' E 174°47'0 0.1
2019-Sep-30 03:29S 41°17' E 174°47'0 0.0
2019-Sep-30 02:59S 41°17' E 174°47'0 0.0
2019-Sep-30 02:26S 41°17' E 174°47'0 0.0
2019-Sep-30 01:56S 41°17' E 174°47'0 0.0
2019-Sep-30 01:23S 41°17' E 174°47'0 0.0
2019-Sep-30 00:59S 41°17' E 174°47'0 0.1
2019-Sep-30 00:29S 41°17' E 174°47'0 0.1
2019-Sep-29 23:59S 41°17' E 174°47'0 0.0
2019-Sep-29 23:29S 41°17' E 174°47'0 0.0
2019-Sep-29 22:59S 41°17' E 174°47'0 0.0
2019-Sep-29 22:29S 41°17' E 174°47'0 0.1
2019-Sep-29 21:59S 41°17' E 174°47'0 0.1
2019-Sep-29 21:29S 41°17' E 174°47'0 0.0
2019-Sep-29 20:59S 41°17' E 174°47'0 0.1
2019-Sep-29 20:29S 41°17' E 174°47'0 0.1
2019-Sep-29 19:59S 41°17' E 174°47'0 0.0
2019-Sep-29 19:29S 41°17' E 174°47'0 0.1
2019-Sep-29 18:59S 41°17' E 174°47'0 0.1
2019-Sep-29 18:29S 41°17' E 174°47'0 0.0
2019-Sep-29 17:59S 41°17' E 174°47'0 0.0
2019-Sep-29 17:29S 41°17' E 174°47'0 0.0
2019-Sep-29 16:59S 41°17' E 174°47'0 0.0
2019-Sep-29 16:29S 41°17' E 174°47'0 0.0
2019-Sep-29 15:59S 41°17' E 174°47'0 0.0
2019-Sep-29 15:26S 41°17' E 174°47'0 0.0
2019-Sep-29 14:59S 41°17' E 174°47'0 0.0
2019-Sep-29 14:29S 41°17' E 174°47'0 0.0
2019-Sep-29 13:59S 41°17' E 174°47'0 0.1
2019-Sep-29 13:29S 41°17' E 174°47'0 0.1
2019-Sep-29 12:59S 41°17' E 174°47'0 0.0
2019-Sep-29 12:29S 41°17' E 174°47'0 0.0
2019-Sep-29 11:59S 41°17' E 174°47'0 0.0
2019-Sep-29 11:29S 41°17' E 174°47'0 0.0
2019-Sep-29 10:59S 41°17' E 174°47'0 0.0
2019-Sep-29 10:26S 41°17' E 174°47'0 0.1
2019-Sep-29 09:59S 41°17' E 174°47'0 0.0
2019-Sep-29 09:23S 41°17' E 174°47'0 0.0
2019-Sep-29 08:56S 41°17' E 174°47'0 0.1
2019-Sep-29 08:26S 41°17' E 174°47'0 0.0
2019-Sep-29 07:53S 41°17' E 174°47'0 0.0
2019-Sep-29 07:17S 41°17' E 174°47'0 0.0
2019-Sep-29 06:59S 41°17' E 174°47'0 0.0
2019-Sep-29 06:29S 41°17' E 174°47'0 0.0
2019-Sep-29 05:59S 41°17' E 174°47'0 0.0
2019-Sep-29 05:26S 41°17' E 174°47'0 0.1
2019-Sep-29 04:59S 41°17' E 174°47'0 0.0
2019-Sep-29 04:29S 41°17' E 174°47'0 0.0
2019-Sep-29 03:59S 41°17' E 174°47'0 0.1
2019-Sep-29 03:29S 41°17' E 174°47'  

Dump ship's entire track history